Terminal Aerodrome Forecast
Issued by NWS Wakefield, VA

Home | Current Version | Previous Version | Text Only | Print | Product List | Glossary On
Versions: 1 2 3 4 5 6 7 8 9 10 11 12 13 14 15 16 17 18 19 20 21 22 23 24
086
FTUS41 KAKQ 182320
TAFECG
TAF
KECG 182320Z 1900/1924 20008KT P6SM SKC
     FM190500 21008KT P6SM VCSH BKN100 BKN250
     FM190900 24007KT P6SM SCT020 BKN250
     FM191500 VRB03KT P6SM SCT040 BKN150=

USA.gov is the U.S. government's official web portal to all federal, state and local government web resources and services.